Andover, Iowa
Current Conditions -  °F | °C
As of 8:15 AM on Sunday 25 Jan 2015 (Local Time) from KSFY Reporting Station
Light Snow Light Snow  
Wind Chill: 19°   Ceiling: 1500
Heat Index: 31°   Visibility: 2mi
Dew Point: 27°   Wind: 16mph
Humidity: 86%   Direction: 50°NE
Pressure: 29.76"   Gusts: 22mph
Location:  41.98°N, 90.25°W
Report Text: KSFY 251415Z AUTO 05014G19KT 2SM -SN BKN015 BKN022 OVC029 M01/M03 A2976 RMK AO2 T10081028
Loading
Personal Weather Stations






























Interactive Weather Map New forecast layout! Learn more

10-Day Weather Forecast

Advertisements
Track Severe Weather on mobile